sensor_id;sensor_type;location;lat;lon;timestamp;P1;durP1;ratioP1;P2;durP2;ratioP2
15931;SDS011;8065;49.520;11.284;2023-02-01T00:02:25;4.17;;;3.70;;
15931;SDS011;8065;49.520;11.284;2023-02-01T00:04:51;4.83;;;4.07;;
15931;SDS011;8065;49.520;11.284;2023-02-01T00:07:17;4.43;;;3.80;;
15931;SDS011;8065;49.520;11.284;2023-02-01T00:09:44;4.57;;;4.17;;
15931;SDS011;8065;49.520;11.284;2023-02-01T00:12:10;5.97;;;4.40;;
15931;SDS011;8065;49.520;11.284;2023-02-01T00:14:38;6.63;;;4.30;;
15931;SDS011;8065;49.520;11.284;2023-02-01T00:17:05;5.30;;;4.60;;
15931;SDS011;8065;49.520;11.284;2023-02-01T00:19:32;5.43;;;4.50;;
15931;SDS011;8065;49.520;11.284;2023-02-01T00:21:59;4.77;;;4.07;;
15931;SDS011;8065;49.520;11.284;2023-02-01T00:24:25;6.30;;;4.50;;
15931;SDS011;8065;49.520;11.284;2023-02-01T00:26:52;5.33;;;4.80;;
15931;SDS011;8065;49.520;11.284;2023-02-01T00:29:19;5.67;;;4.60;;
15931;SDS011;8065;49.520;11.284;2023-02-01T00:31:48;8.27;;;5.00;;
15931;SDS011;8065;49.520;11.284;2023-02-01T00:34:16;6.63;;;5.30;;
15931;SDS011;8065;49.520;11.284;2023-02-01T00:36:43;5.87;;;5.17;;
15931;SDS011;8065;49.520;11.284;2023-02-01T00:39:10;8.37;;;6.20;;
15931;SDS011;8065;49.520;11.284;2023-02-01T00:41:37;7.03;;;5.97;;
15931;SDS011;8065;49.520;11.284;2023-02-01T00:44:04;8.80;;;6.00;;
15931;SDS011;8065;49.520;11.284;2023-02-01T00:46:30;7.40;;;5.60;;
15931;SDS011;8065;49.520;11.284;2023-02-01T00:48:58;8.20;;;6.37;;
15931;SDS011;8065;49.520;11.284;2023-02-01T00:51:25;8.63;;;5.70;;
15931;SDS011;8065;49.520;11.284;2023-02-01T00:53:54;10.03;;;6.20;;
15931;SDS011;8065;49.520;11.284;2023-02-01T00:56:21;8.37;;;6.20;;
15931;SDS011;8065;49.520;11.284;2023-02-01T00:58:48;6.80;;;6.10;;
15931;SDS011;8065;49.520;11.284;2023-02-01T01:01:15;9.63;;;5.67;;
15931;SDS011;8065;49.520;11.284;2023-02-01T01:03:45;6.83;;;5.87;;
15931;SDS011;8065;49.520;11.284;2023-02-01T01:06:16;5.73;;;5.13;;
15931;SDS011;8065;49.520;11.284;2023-02-01T01:08:45;7.97;;;6.23;;
15931;SDS011;8065;49.520;11.284;2023-02-01T01:11:12;6.37;;;5.77;;
15931;SDS011;8065;49.520;11.284;2023-02-01T01:13:40;5.87;;;5.20;;
15931;SDS011;8065;49.520;11.284;2023-02-01T01:16:08;7.47;;;5.43;;
15931;SDS011;8065;49.520;11.284;2023-02-01T01:18:36;5.83;;;5.27;;
15931;SDS011;8065;49.520;11.284;2023-02-01T01:21:04;5.37;;;4.60;;
15931;SDS011;8065;49.520;11.284;2023-02-01T01:23:33;6.67;;;5.30;;
15931;SDS011;8065;49.520;11.284;2023-02-01T01:26:00;5.83;;;5.17;;
15931;SDS011;8065;49.520;11.284;2023-02-01T01:28:26;6.37;;;5.33;;
15931;SDS011;8065;49.520;11.284;2023-02-01T01:30:53;6.20;;;4.97;;
15931;SDS011;8065;49.520;11.284;2023-02-01T01:33:19;5.67;;;5.07;;
15931;SDS011;8065;49.520;11.284;2023-02-01T01:35:46;6.13;;;4.57;;
15931;SDS011;8065;49.520;11.284;2023-02-01T01:38:12;5.63;;;4.73;;
15931;SDS011;8065;49.520;11.284;2023-02-01T01:40:40;4.83;;;4.43;;
15931;SDS011;8065;49.520;11.284;2023-02-01T01:43:12;6.13;;;4.80;;
15931;SDS011;8065;49.520;11.284;2023-02-01T01:45:40;6.73;;;4.90;;
15931;SDS011;8065;49.520;11.284;2023-02-01T01:48:08;6.60;;;5.00;;
15931;SDS011;8065;49.520;11.284;2023-02-01T01:50:41;5.60;;;4.93;;
15931;SDS011;8065;49.520;11.284;2023-02-01T01:53:13;6.63;;;5.60;;
15931;SDS011;8065;49.520;11.284;2023-02-01T01:55:46;8.70;;;5.00;;
15931;SDS011;8065;49.520;11.284;2023-02-01T01:58:15;6.83;;;5.53;;
15931;SDS011;8065;49.520;11.284;2023-02-01T02:00:44;7.53;;;5.33;;
15931;SDS011;8065;49.520;11.284;2023-02-01T02:03:13;6.90;;;5.43;;
15931;SDS011;8065;49.520;11.284;2023-02-01T02:05:43;6.33;;;5.30;;
15931;SDS011;8065;49.520;11.284;2023-02-01T02:08:11;7.30;;;5.17;;
15931;SDS011;8065;49.520;11.284;2023-02-01T02:10:37;6.83;;;5.07;;
15931;SDS011;8065;49.520;11.284;2023-02-01T02:13:23;7.40;;;5.87;;
15931;SDS011;8065;49.520;11.284;2023-02-01T02:15:52;5.63;;;5.13;;
15931;SDS011;8065;49.520;11.284;2023-02-01T02:18:32;6.07;;;5.47;;
15931;SDS011;8065;49.520;11.284;2023-02-01T02:21:12;5.50;;;4.90;;
15931;SDS011;8065;49.520;11.284;2023-02-01T02:24:01;7.30;;;5.60;;
15931;SDS011;8065;49.520;11.284;2023-02-01T02:27:04;5.70;;;5.10;;
15931;SDS011;8065;49.520;11.284;2023-02-01T02:29:55;7.23;;;5.10;;
15931;SDS011;8065;49.520;11.284;2023-02-01T02:32:55;5.67;;;5.07;;
15931;SDS011;8065;49.520;11.284;2023-02-01T02:35:45;7.40;;;5.53;;
15931;SDS011;8065;49.520;11.284;2023-02-01T02:38:17;6.23;;;4.93;;
15931;SDS011;8065;49.520;11.284;2023-02-01T02:40:54;5.53;;;4.90;;
15931;SDS011;8065;49.520;11.284;2023-02-01T02:43:32;6.13;;;4.27;;
15931;SDS011;8065;49.520;11.284;2023-02-01T02:46:25;5.40;;;4.83;;
15931;SDS011;8065;49.520;11.284;2023-02-01T02:49:18;6.43;;;4.43;;
15931;SDS011;8065;49.520;11.284;2023-02-01T02:51:49;4.90;;;4.50;;
15931;SDS011;8065;49.520;11.284;2023-02-01T02:54:37;6.27;;;4.70;;
15931;SDS011;8065;49.520;11.284;2023-02-01T02:57:14;5.43;;;4.93;;
15931;SDS011;8065;49.520;11.284;2023-02-01T03:00:03;6.20;;;4.80;;
15931;SDS011;8065;49.520;11.284;2023-02-01T03:02:49;5.93;;;4.90;;
15931;SDS011;8065;49.520;11.284;2023-02-01T03:05:39;6.43;;;4.77;;
15931;SDS011;8065;49.520;11.284;2023-02-01T03:08:10;6.53;;;4.90;;
15931;SDS011;8065;49.520;11.284;2023-02-01T03:10:41;5.27;;;4.77;;
15931;SDS011;8065;49.520;11.284;2023-02-01T03:13:14;5.33;;;4.83;;
15931;SDS011;8065;49.520;11.284;2023-02-01T03:15:47;7.13;;;5.07;;
15931;SDS011;8065;49.520;11.284;2023-02-01T03:18:21;5.53;;;5.03;;
15931;SDS011;8065;49.520;11.284;2023-02-01T03:20:53;6.07;;;5.03;;
15931;SDS011;8065;49.520;11.284;2023-02-01T03:23:22;5.07;;;4.40;;
15931;SDS011;8065;49.520;11.284;2023-02-01T03:25:53;6.27;;;4.63;;
15931;SDS011;8065;49.520;11.284;2023-02-01T03:28:23;5.63;;;4.90;;
15931;SDS011;8065;49.520;11.284;2023-02-01T03:30:53;4.97;;;4.37;;
15931;SDS011;8065;49.520;11.284;2023-02-01T03:33:21;5.17;;;4.37;;
15931;SDS011;8065;49.520;11.284;2023-02-01T03:35:55;5.13;;;4.47;;
15931;SDS011;8065;49.520;11.284;2023-02-01T03:38:27;4.80;;;4.13;;
15931;SDS011;8065;49.520;11.284;2023-02-01T03:40:59;5.57;;;4.13;;
15931;SDS011;8065;49.520;11.284;2023-02-01T03:43:29;5.23;;;4.73;;
15931;SDS011;8065;49.520;11.284;2023-02-01T03:46:04;5.27;;;4.40;;
15931;SDS011;8065;49.520;11.284;2023-02-01T03:48:35;4.97;;;4.40;;
15931;SDS011;8065;49.520;11.284;2023-02-01T03:51:05;6.07;;;4.87;;
15931;SDS011;8065;49.520;11.284;2023-02-01T03:53:34;5.40;;;4.73;;
15931;SDS011;8065;49.520;11.284;2023-02-01T03:56:03;6.20;;;5.00;;
15931;SDS011;8065;49.520;11.284;2023-02-01T03:58:30;7.07;;;5.27;;
15931;SDS011;8065;49.520;11.284;2023-02-01T04:00:57;6.80;;;5.60;;
15931;SDS011;8065;49.520;11.284;2023-02-01T04:03:25;8.83;;;5.90;;
15931;SDS011;8065;49.520;11.284;2023-02-01T04:05:52;6.23;;;5.10;;
15931;SDS011;8065;49.520;11.284;2023-02-01T04:08:21;6.63;;;5.27;;
15931;SDS011;8065;49.520;11.284;2023-02-01T04:10:48;9.30;;;5.80;;
15931;SDS011;8065;49.520;11.284;2023-02-01T04:13:15;7.03;;;5.27;;
15931;SDS011;8065;49.520;11.284;2023-02-01T04:15:41;6.33;;;5.50;;
15931;SDS011;8065;49.520;11.284;2023-02-01T04:18:08;5.53;;;5.03;;
15931;SDS011;8065;49.520;11.284;2023-02-01T04:20:34;7.53;;;5.37;;
15931;SDS011;8065;49.520;11.284;2023-02-01T04:23:01;6.73;;;5.70;;
15931;SDS011;8065;49.520;11.284;2023-02-01T04:25:29;7.90;;;5.60;;
15931;SDS011;8065;49.520;11.284;2023-02-01T04:27:56;7.93;;;5.60;;
15931;SDS011;8065;49.520;11.284;2023-02-01T04:30:22;9.00;;;5.83;;
15931;SDS011;8065;49.520;11.284;2023-02-01T04:32:49;8.97;;;6.10;;
15931;SDS011;8065;49.520;11.284;2023-02-01T04:35:16;7.90;;;6.17;;
15931;SDS011;8065;49.520;11.284;2023-02-01T04:37:42;6.87;;;5.90;;
15931;SDS011;8065;49.520;11.284;2023-02-01T04:40:09;8.20;;;6.13;;
15931;SDS011;8065;49.520;11.284;2023-02-01T04:42:38;9.00;;;6.57;;
15931;SDS011;8065;49.520;11.284;2023-02-01T04:45:05;7.87;;;6.50;;
15931;SDS011;8065;49.520;11.284;2023-02-01T04:47:32;8.17;;;6.83;;
15931;SDS011;8065;49.520;11.284;2023-02-01T04:49:58;7.93;;;6.37;;
15931;SDS011;8065;49.520;11.284;2023-02-01T04:52:25;9.13;;;7.00;;
15931;SDS011;8065;49.520;11.284;2023-02-01T04:54:52;7.10;;;6.17;;
15931;SDS011;8065;49.520;11.284;2023-02-01T04:57:22;9.30;;;7.53;;
15931;SDS011;8065;49.520;11.284;2023-02-01T04:59:50;9.37;;;7.30;;
15931;SDS011;8065;49.520;11.284;2023-02-01T05:02:16;8.30;;;7.10;;
15931;SDS011;8065;49.520;11.284;2023-02-01T05:04:43;7.87;;;6.13;;
15931;SDS011;8065;49.520;11.284;2023-02-01T05:07:09;8.50;;;6.83;;
15931;SDS011;8065;49.520;11.284;2023-02-01T05:09:36;8.00;;;6.47;;
15931;SDS011;8065;49.520;11.284;2023-02-01T05:12:02;7.97;;;6.57;;
15931;SDS011;8065;49.520;11.284;2023-02-01T05:14:46;8.07;;;6.53;;
15931;SDS011;8065;49.520;11.284;2023-02-01T05:17:15;7.10;;;6.40;;
15931;SDS011;8065;49.520;11.284;2023-02-01T05:19:41;8.87;;;7.03;;
15931;SDS011;8065;49.520;11.284;2023-02-01T05:22:08;8.67;;;6.90;;
15931;SDS011;8065;49.520;11.284;2023-02-01T05:24:34;11.90;;;7.60;;
15931;SDS011;8065;49.520;11.284;2023-02-01T05:27:01;8.33;;;7.03;;
15931;SDS011;8065;49.520;11.284;2023-02-01T05:29:27;9.10;;;6.70;;
15931;SDS011;8065;49.520;11.284;2023-02-01T05:31:54;9.33;;;6.90;;
15931;SDS011;8065;49.520;11.284;2023-02-01T05:34:21;7.87;;;6.97;;
15931;SDS011;8065;49.520;11.284;2023-02-01T05:36:48;6.77;;;6.07;;
15931;SDS011;8065;49.520;11.284;2023-02-01T05:39:14;8.00;;;6.83;;
15931;SDS011;8065;49.520;11.284;2023-02-01T05:41:41;7.80;;;6.13;;
15931;SDS011;8065;49.520;11.284;2023-02-01T05:44:07;7.93;;;5.90;;
15931;SDS011;8065;49.520;11.284;2023-02-01T05:46:34;7.53;;;6.47;;
15931;SDS011;8065;49.520;11.284;2023-02-01T05:49:01;9.50;;;6.47;;
15931;SDS011;8065;49.520;11.284;2023-02-01T05:51:29;7.80;;;5.17;;
15931;SDS011;8065;49.520;11.284;2023-02-01T05:53:56;11.53;;;5.60;;
15931;SDS011;8065;49.520;11.284;2023-02-01T05:56:22;7.33;;;4.80;;
15931;SDS011;8065;49.520;11.284;2023-02-01T05:58:48;6.87;;;4.23;;
15931;SDS011;8065;49.520;11.284;2023-02-01T06:01:15;6.60;;;4.10;;
15931;SDS011;8065;49.520;11.284;2023-02-01T06:03:41;9.53;;;3.93;;
15931;SDS011;8065;49.520;11.284;2023-02-01T06:06:08;6.00;;;3.67;;
15931;SDS011;8065;49.520;11.284;2023-02-01T06:08:36;8.47;;;3.50;;
15931;SDS011;8065;49.520;11.284;2023-02-01T06:11:05;8.43;;;3.17;;
15931;SDS011;8065;49.520;11.284;2023-02-01T06:13:32;3.53;;;2.20;;
15931;SDS011;8065;49.520;11.284;2023-02-01T06:15:58;3.60;;;2.10;;
15931;SDS011;8065;49.520;11.284;2023-02-01T06:18:25;4.13;;;2.20;;
15931;SDS011;8065;49.520;11.284;2023-02-01T06:20:52;6.47;;;2.20;;
15931;SDS011;8065;49.520;11.284;2023-02-01T06:23:19;4.93;;;1.93;;
15931;SDS011;8065;49.520;11.284;2023-02-01T06:25:50;4.00;;;1.90;;
15931;SDS011;8065;49.520;11.284;2023-02-01T06:28:17;5.70;;;2.20;;
15931;SDS011;8065;49.520;11.284;2023-02-01T06:30:43;4.23;;;2.20;;
15931;SDS011;8065;49.520;11.284;2023-02-01T06:33:11;4.03;;;2.23;;
15931;SDS011;8065;49.520;11.284;2023-02-01T06:35:39;3.03;;;2.33;;
15931;SDS011;8065;49.520;11.284;2023-02-01T06:38:07;4.17;;;2.50;;
15931;SDS011;8065;49.520;11.284;2023-02-01T06:40:33;6.43;;;2.60;;
15931;SDS011;8065;49.520;11.284;2023-02-01T06:43:01;3.90;;;2.43;;
15931;SDS011;8065;49.520;11.284;2023-02-01T06:45:28;3.90;;;2.53;;
15931;SDS011;8065;49.520;11.284;2023-02-01T06:47:54;2.77;;;1.83;;
15931;SDS011;8065;49.520;11.284;2023-02-01T06:50:21;3.87;;;2.03;;
15931;SDS011;8065;49.520;11.284;2023-02-01T06:52:48;4.03;;;2.50;;
15931;SDS011;8065;49.520;11.284;2023-02-01T06:55:14;2.00;;;1.90;;
15931;SDS011;8065;49.520;11.284;2023-02-01T06:57:40;3.83;;;2.37;;
15931;SDS011;8065;49.520;11.284;2023-02-01T07:00:09;5.03;;;2.70;;
15931;SDS011;8065;49.520;11.284;2023-02-01T07:02:36;2.30;;;2.10;;
15931;SDS011;8065;49.520;11.284;2023-02-01T07:05:04;2.67;;;2.10;;
15931;SDS011;8065;49.520;11.284;2023-02-01T07:07:31;3.67;;;3.20;;
15931;SDS011;8065;49.520;11.284;2023-02-01T07:09:57;4.23;;;2.50;;
15931;SDS011;8065;49.520;11.284;2023-02-01T07:12:24;4.10;;;2.87;;
15931;SDS011;8065;49.520;11.284;2023-02-01T07:14:50;2.97;;;2.50;;
15931;SDS011;8065;49.520;11.284;2023-02-01T07:17:18;3.67;;;2.60;;
15931;SDS011;8065;49.520;11.284;2023-02-01T07:19:44;3.23;;;2.57;;
15931;SDS011;8065;49.520;11.284;2023-02-01T07:22:11;2.53;;;2.33;;
15931;SDS011;8065;49.520;11.284;2023-02-01T07:24:37;2.47;;;2.27;;
15931;SDS011;8065;49.520;11.284;2023-02-01T07:27:04;2.70;;;2.00;;
15931;SDS011;8065;49.520;11.284;2023-02-01T07:29:30;2.60;;;2.40;;
15931;SDS011;8065;49.520;11.284;2023-02-01T07:31:57;2.87;;;2.50;;
15931;SDS011;8065;49.520;11.284;2023-02-01T07:34:26;3.10;;;2.80;;
15931;SDS011;8065;49.520;11.284;2023-02-01T07:36:53;3.00;;;2.70;;
15931;SDS011;8065;49.520;11.284;2023-02-01T07:39:19;3.87;;;2.93;;
15931;SDS011;8065;49.520;11.284;2023-02-01T07:41:46;2.57;;;2.40;;
15931;SDS011;8065;49.520;11.284;2023-02-01T07:44:12;3.40;;;2.90;;
15931;SDS011;8065;49.520;11.284;2023-02-01T07:46:39;3.53;;;3.03;;
15931;SDS011;8065;49.520;11.284;2023-02-01T07:49:05;3.03;;;2.70;;
15931;SDS011;8065;49.520;11.284;2023-02-01T07:51:33;2.70;;;2.50;;
15931;SDS011;8065;49.520;11.284;2023-02-01T07:54:00;3.20;;;2.73;;
15931;SDS011;8065;49.520;11.284;2023-02-01T07:56:26;3.37;;;2.93;;
15931;SDS011;8065;49.520;11.284;2023-02-01T07:58:53;4.27;;;2.60;;
15931;SDS011;8065;49.520;11.284;2023-02-01T08:01:21;4.30;;;3.10;;
15931;SDS011;8065;49.520;11.284;2023-02-01T08:03:50;4.73;;;2.97;;
15931;SDS011;8065;49.520;11.284;2023-02-01T08:06:17;5.43;;;3.33;;
15931;SDS011;8065;49.520;11.284;2023-02-01T08:08:46;5.40;;;3.50;;
15931;SDS011;8065;49.520;11.284;2023-02-01T08:11:13;2.90;;;2.70;;
15931;SDS011;8065;49.520;11.284;2023-02-01T08:13:40;4.37;;;3.07;;
15931;SDS011;8065;49.520;11.284;2023-02-01T08:16:08;4.03;;;3.00;;
15931;SDS011;8065;49.520;11.284;2023-02-01T08:18:36;4.57;;;3.33;;
15931;SDS011;8065;49.520;11.284;2023-02-01T08:21:03;4.57;;;2.87;;
15931;SDS011;8065;49.520;11.284;2023-02-01T08:23:30;3.57;;;3.10;;
15931;SDS011;8065;49.520;11.284;2023-02-01T08:26:04;4.87;;;2.60;;
15931;SDS011;8065;49.520;11.284;2023-02-01T08:28:35;6.20;;;3.20;;
15931;SDS011;8065;49.520;11.284;2023-02-01T08:31:06;4.00;;;2.77;;
15931;SDS011;8065;49.520;11.284;2023-02-01T08:33:33;6.13;;;2.80;;
15931;SDS011;8065;49.520;11.284;2023-02-01T08:36:01;4.53;;;2.90;;
15931;SDS011;8065;49.520;11.284;2023-02-01T08:38:28;3.50;;;3.00;;
15931;SDS011;8065;49.520;11.284;2023-02-01T08:40:54;4.63;;;2.93;;
15931;SDS011;8065;49.520;11.284;2023-02-01T08:43:22;4.60;;;3.23;;
15931;SDS011;8065;49.520;11.284;2023-02-01T08:45:49;4.93;;;2.77;;
15931;SDS011;8065;49.520;11.284;2023-02-01T08:48:16;4.50;;;3.13;;
15931;SDS011;8065;49.520;11.284;2023-02-01T08:50:42;6.97;;;2.93;;
15931;SDS011;8065;49.520;11.284;2023-02-01T08:53:09;4.37;;;2.57;;
15931;SDS011;8065;49.520;11.284;2023-02-01T08:55:37;3.57;;;2.73;;
15931;SDS011;8065;49.520;11.284;2023-02-01T08:58:03;4.27;;;2.57;;
15931;SDS011;8065;49.520;11.284;2023-02-01T09:00:31;4.40;;;2.63;;
15931;SDS011;8065;49.520;11.284;2023-02-01T09:02:57;6.93;;;2.53;;
15931;SDS011;8065;49.520;11.284;2023-02-01T09:05:24;5.87;;;2.90;;
15931;SDS011;8065;49.520;11.284;2023-02-01T09:07:51;3.70;;;2.50;;
15931;SDS011;8065;49.520;11.284;2023-02-01T09:10:18;3.70;;;2.50;;
15931;SDS011;8065;49.520;11.284;2023-02-01T09:12:45;5.07;;;2.93;;
15931;SDS011;8065;49.520;11.284;2023-02-01T09:15:11;4.07;;;2.87;;
15931;SDS011;8065;49.520;11.284;2023-02-01T09:17:39;4.60;;;2.53;;
15931;SDS011;8065;49.520;11.284;2023-02-01T09:20:07;5.27;;;2.57;;
15931;SDS011;8065;49.520;11.284;2023-02-01T09:22:34;5.07;;;2.57;;
15931;SDS011;8065;49.520;11.284;2023-02-01T09:25:01;7.33;;;2.70;;
15931;SDS011;8065;49.520;11.284;2023-02-01T09:27:27;4.83;;;2.50;;
15931;SDS011;8065;49.520;11.284;2023-02-01T09:29:54;4.93;;;2.50;;
15931;SDS011;8065;49.520;11.284;2023-02-01T09:32:21;3.77;;;2.10;;
15931;SDS011;8065;49.520;11.284;2023-02-01T09:34:50;6.07;;;2.83;;
15931;SDS011;8065;49.520;11.284;2023-02-01T09:37:17;5.87;;;2.70;;
15931;SDS011;8065;49.520;11.284;2023-02-01T09:39:44;4.07;;;2.40;;
15931;SDS011;8065;49.520;11.284;2023-02-01T09:42:16;4.90;;;2.60;;
15931;SDS011;8065;49.520;11.284;2023-02-01T09:44:55;6.10;;;2.47;;
15931;SDS011;8065;49.520;11.284;2023-02-01T09:47:32;4.97;;;2.60;;
15931;SDS011;8065;49.520;11.284;2023-02-01T09:50:03;4.03;;;2.20;;
15931;SDS011;8065;49.520;11.284;2023-02-01T09:52:34;5.60;;;2.87;;
15931;SDS011;8065;49.520;11.284;2023-02-01T09:55:06;5.80;;;2.40;;
15931;SDS011;8065;49.520;11.284;2023-02-01T09:57:40;5.27;;;2.50;;
15931;SDS011;8065;49.520;11.284;2023-02-01T10:00:16;4.63;;;1.97;;
15931;SDS011;8065;49.520;11.284;2023-02-01T10:02:46;3.90;;;2.03;;
15931;SDS011;8065;49.520;11.284;2023-02-01T10:05:15;5.87;;;2.50;;
15931;SDS011;8065;49.520;11.284;2023-02-01T10:07:51;5.67;;;2.30;;
15931;SDS011;8065;49.520;11.284;2023-02-01T10:15:55;5.80;;;2.73;;
15931;SDS011;8065;49.520;11.284;2023-02-01T10:18:42;6.73;;;2.30;;
15931;SDS011;8065;49.520;11.284;2023-02-01T10:21:21;8.33;;;2.50;;
15931;SDS011;8065;49.520;11.284;2023-02-01T10:24:00;6.27;;;2.27;;
15931;SDS011;8065;49.520;11.284;2023-02-01T10:26:36;4.77;;;2.17;;
15931;SDS011;8065;49.520;11.284;2023-02-01T10:29:09;6.77;;;2.00;;
15931;SDS011;8065;49.520;11.284;2023-02-01T10:31:41;7.87;;;1.97;;
15931;SDS011;8065;49.520;11.284;2023-02-01T10:34:11;6.37;;;1.83;;
15931;SDS011;8065;49.520;11.284;2023-02-01T10:36:49;5.53;;;1.97;;
15931;SDS011;8065;49.520;11.284;2023-02-01T10:39:19;6.17;;;2.07;;
15931;SDS011;8065;49.520;11.284;2023-02-01T10:41:45;5.20;;;1.80;;
15931;SDS011;8065;49.520;11.284;2023-02-01T10:44:14;8.53;;;2.37;;
15931;SDS011;8065;49.520;11.284;2023-02-01T10:46:43;4.27;;;2.00;;
15931;SDS011;8065;49.520;11.284;2023-02-01T10:49:11;7.87;;;2.60;;
15931;SDS011;8065;49.520;11.284;2023-02-01T10:51:44;7.00;;;2.43;;
15931;SDS011;8065;49.520;11.284;2023-02-01T10:54:16;6.63;;;2.30;;
15931;SDS011;8065;49.520;11.284;2023-02-01T10:56:45;4.00;;;2.40;;
15931;SDS011;8065;49.520;11.284;2023-02-01T10:59:14;8.00;;;2.73;;
15931;SDS011;8065;49.520;11.284;2023-02-01T11:01:43;6.73;;;2.53;;
15931;SDS011;8065;49.520;11.284;2023-02-01T11:04:12;7.50;;;3.00;;
15931;SDS011;8065;49.520;11.284;2023-02-01T11:06:41;5.10;;;2.70;;
15931;SDS011;8065;49.520;11.284;2023-02-01T11:09:15;7.40;;;2.97;;
15931;SDS011;8065;49.520;11.284;2023-02-01T11:11:55;7.90;;;3.43;;
15931;SDS011;8065;49.520;11.284;2023-02-01T11:14:28;9.87;;;3.47;;
15931;SDS011;8065;49.520;11.284;2023-02-01T11:17:02;10.57;;;3.43;;
15931;SDS011;8065;49.520;11.284;2023-02-01T11:19:44;10.13;;;3.50;;
15931;SDS011;8065;49.520;11.284;2023-02-01T11:22:11;8.43;;;3.53;;
15931;SDS011;8065;49.520;11.284;2023-02-01T11:24:41;11.33;;;3.90;;
15931;SDS011;8065;49.520;11.284;2023-02-01T11:27:12;6.20;;;3.50;;
15931;SDS011;8065;49.520;11.284;2023-02-01T11:29:42;9.27;;;3.50;;
15931;SDS011;8065;49.520;11.284;2023-02-01T11:32:12;8.30;;;3.20;;
15931;SDS011;8065;49.520;11.284;2023-02-01T11:34:41;11.23;;;3.40;;
15931;SDS011;8065;49.520;11.284;2023-02-01T11:37:15;7.40;;;3.30;;
15931;SDS011;8065;49.520;11.284;2023-02-01T11:39:52;9.27;;;3.37;;
15931;SDS011;8065;49.520;11.284;2023-02-01T11:42:20;7.30;;;3.03;;
15931;SDS011;8065;49.520;11.284;2023-02-01T11:44:47;6.70;;;3.47;;
15931;SDS011;8065;49.520;11.284;2023-02-01T11:47:21;9.77;;;3.43;;
15931;SDS011;8065;49.520;11.284;2023-02-01T11:49:50;14.23;;;3.23;;
15931;SDS011;8065;49.520;11.284;2023-02-01T11:52:22;7.17;;;3.30;;
15931;SDS011;8065;49.520;11.284;2023-02-01T11:55:10;11.90;;;3.20;;
15931;SDS011;8065;49.520;11.284;2023-02-01T11:57:52;5.63;;;2.80;;
15931;SDS011;8065;49.520;11.284;2023-02-01T12:03:49;12.43;;;3.00;;
15931;SDS011;8065;49.520;11.284;2023-02-01T12:06:43;10.27;;;2.90;;
15931;SDS011;8065;49.520;11.284;2023-02-01T12:09:20;11.03;;;3.07;;
15931;SDS011;8065;49.520;11.284;2023-02-01T12:11:59;9.60;;;3.17;;
15931;SDS011;8065;49.520;11.284;2023-02-01T12:14:38;12.43;;;3.33;;
15931;SDS011;8065;49.520;11.284;2023-02-01T12:17:31;7.60;;;3.10;;
15931;SDS011;8065;49.520;11.284;2023-02-01T12:20:31;10.00;;;3.47;;
15931;SDS011;8065;49.520;11.284;2023-02-01T12:23:16;11.47;;;3.03;;
15931;SDS011;8065;49.520;11.284;2023-02-01T12:25:55;7.77;;;3.47;;
15931;SDS011;8065;49.520;11.284;2023-02-01T12:28:45;7.83;;;2.83;;
15931;SDS011;8065;49.520;11.284;2023-02-01T12:31:31;7.13;;;2.90;;
15931;SDS011;8065;49.520;11.284;2023-02-01T12:34:12;6.53;;;2.70;;
15931;SDS011;8065;49.520;11.284;2023-02-01T12:36:56;7.07;;;3.10;;
15931;SDS011;8065;49.520;11.284;2023-02-01T12:39:32;8.13;;;3.17;;
15931;SDS011;8065;49.520;11.284;2023-02-01T12:42:08;7.10;;;3.20;;
15931;SDS011;8065;49.520;11.284;2023-02-01T12:44:41;10.37;;;3.57;;
15931;SDS011;8065;49.520;11.284;2023-02-01T12:47:13;6.53;;;3.10;;
15931;SDS011;8065;49.520;11.284;2023-02-01T12:49:46;11.33;;;3.03;;
15931;SDS011;8065;49.520;11.284;2023-02-01T12:52:18;8.90;;;3.07;;
15931;SDS011;8065;49.520;11.284;2023-02-01T12:54:50;8.63;;;3.20;;
15931;SDS011;8065;49.520;11.284;2023-02-01T12:57:23;5.53;;;2.60;;
15931;SDS011;8065;49.520;11.284;2023-02-01T12:59:56;7.00;;;2.57;;
15931;SDS011;8065;49.520;11.284;2023-02-01T13:02:33;7.23;;;3.10;;
15931;SDS011;8065;49.520;11.284;2023-02-01T13:05:11;6.37;;;2.93;;
15931;SDS011;8065;49.520;11.284;2023-02-01T13:07:41;8.90;;;3.17;;
15931;SDS011;8065;49.520;11.284;2023-02-01T13:10:12;8.00;;;3.13;;
15931;SDS011;8065;49.520;11.284;2023-02-01T13:12:44;7.67;;;3.07;;
15931;SDS011;8065;49.520;11.284;2023-02-01T13:15:21;10.67;;;2.73;;
15931;SDS011;8065;49.520;11.284;2023-02-01T13:17:51;9.07;;;3.13;;
15931;SDS011;8065;49.520;11.284;2023-02-01T13:20:21;7.93;;;3.07;;
15931;SDS011;8065;49.520;11.284;2023-02-01T13:22:51;9.43;;;3.40;;
15931;SDS011;8065;49.520;11.284;2023-02-01T13:25:25;8.70;;;4.17;;
15931;SDS011;8065;49.520;11.284;2023-02-01T13:28:01;8.37;;;3.40;;
15931;SDS011;8065;49.520;11.284;2023-02-01T13:30:37;11.93;;;3.33;;
15931;SDS011;8065;49.520;11.284;2023-02-01T13:33:21;16.53;;;7.97;;
15931;SDS011;8065;49.520;11.284;2023-02-01T13:36:07;13.87;;;7.10;;
15931;SDS011;8065;49.520;11.284;2023-02-01T13:42:16;10.70;;;3.30;;
15931;SDS011;8065;49.520;11.284;2023-02-01T13:47:43;10.93;;;3.20;;
15931;SDS011;8065;49.520;11.284;2023-02-01T13:50:19;7.27;;;2.43;;
15931;SDS011;8065;49.520;11.284;2023-02-01T13:52:51;7.40;;;2.73;;
15931;SDS011;8065;49.520;11.284;2023-02-01T13:55:24;8.50;;;3.07;;
15931;SDS011;8065;49.520;11.284;2023-02-01T13:57:59;9.50;;;2.57;;
15931;SDS011;8065;49.520;11.284;2023-02-01T14:00:29;9.00;;;3.20;;
15931;SDS011;8065;49.520;11.284;2023-02-01T14:05:55;9.00;;;3.07;;
15931;SDS011;8065;49.520;11.284;2023-02-01T14:08:40;10.70;;;3.00;;
15931;SDS011;8065;49.520;11.284;2023-02-01T14:23:21;7.40;;;2.70;;
15931;SDS011;8065;49.520;11.284;2023-02-01T14:28:32;6.20;;;2.40;;
15931;SDS011;8065;49.520;11.284;2023-02-01T14:31:06;10.83;;;2.77;;
15931;SDS011;8065;49.520;11.284;2023-02-01T14:33:41;6.97;;;2.50;;
15931;SDS011;8065;49.520;11.284;2023-02-01T14:36:09;11.27;;;2.97;;
15931;SDS011;8065;49.520;11.284;2023-02-01T14:38:40;8.70;;;2.60;;
15931;SDS011;8065;49.520;11.284;2023-02-01T14:41:24;9.80;;;2.80;;
15931;SDS011;8065;49.520;11.284;2023-02-01T14:44:13;8.13;;;2.80;;
15931;SDS011;8065;49.520;11.284;2023-02-01T14:49:54;12.20;;;2.87;;
15931;SDS011;8065;49.520;11.284;2023-02-01T14:52:28;7.00;;;2.63;;
15931;SDS011;8065;49.520;11.284;2023-02-01T14:55:01;10.13;;;2.60;;
15931;SDS011;8065;49.520;11.284;2023-02-01T14:57:31;9.13;;;2.70;;
15931;SDS011;8065;49.520;11.284;2023-02-01T15:00:05;10.00;;;2.83;;
15931;SDS011;8065;49.520;11.284;2023-02-01T15:02:34;8.30;;;2.67;;
15931;SDS011;8065;49.520;11.284;2023-02-01T15:05:12;8.87;;;2.83;;
15931;SDS011;8065;49.520;11.284;2023-02-01T15:07:48;11.10;;;2.50;;
15931;SDS011;8065;49.520;11.284;2023-02-01T15:10:18;8.67;;;2.90;;
15931;SDS011;8065;49.520;11.284;2023-02-01T15:12:46;10.53;;;2.63;;
15931;SDS011;8065;49.520;11.284;2023-02-01T15:15:16;7.23;;;2.50;;
15931;SDS011;8065;49.520;11.284;2023-02-01T15:17:49;9.97;;;2.63;;
15931;SDS011;8065;49.520;11.284;2023-02-01T15:20:17;10.67;;;2.47;;
15931;SDS011;8065;49.520;11.284;2023-02-01T15:22:56;7.10;;;2.57;;
15931;SDS011;8065;49.520;11.284;2023-02-01T15:25:27;12.10;;;2.60;;
15931;SDS011;8065;49.520;11.284;2023-02-01T15:27:54;6.70;;;2.33;;
15931;SDS011;8065;49.520;11.284;2023-02-01T15:30:23;11.00;;;2.70;;
15931;SDS011;8065;49.520;11.284;2023-02-01T15:32:51;11.87;;;2.70;;
15931;SDS011;8065;49.520;11.284;2023-02-01T15:35:33;9.30;;;2.67;;
15931;SDS011;8065;49.520;11.284;2023-02-01T15:41:10;6.60;;;2.50;;
15931;SDS011;8065;49.520;11.284;2023-02-01T15:43:40;5.27;;;2.30;;
15931;SDS011;8065;49.520;11.284;2023-02-01T15:46:10;10.37;;;2.93;;
15931;SDS011;8065;49.520;11.284;2023-02-01T15:48:41;7.47;;;2.60;;